createdAt,value
2023-04-19T00:01:23.347Z,49.03
2023-04-19T00:03:52.669Z,53.58
2023-04-19T00:06:21.992Z,49.13
2023-04-19T00:08:52.299Z,51.05
2023-04-19T00:11:21.460Z,55.15
2023-04-19T00:13:50.411Z,48.45
2023-04-19T00:16:19.409Z,58.72
2023-04-19T00:18:48.618Z,50.58
2023-04-19T00:21:17.881Z,48.85
2023-04-19T00:23:47.024Z,57.05
2023-04-19T00:26:17.319Z,54.10
2023-04-19T00:28:51.714Z,54.13
2023-04-19T00:31:20.823Z,61.35
2023-04-19T00:33:49.800Z,51.17
2023-04-19T00:36:18.712Z,50.67
2023-04-19T00:38:49.316Z,63.10
2023-04-19T00:41:19.948Z,54.58
2023-04-19T00:43:48.985Z,59.20
2023-04-19T00:46:18.540Z,55.13
2023-04-19T00:48:47.787Z,55.80
2023-04-19T00:51:16.942Z,58.55
2023-04-19T00:53:46.357Z,50.28
2023-04-19T00:56:15.792Z,56.63
2023-04-19T00:58:46.649Z,68.95
2023-04-19T01:01:16.316Z,64.82
2023-04-19T01:03:46.003Z,62.55
2023-04-19T01:06:15.278Z,60.63
2023-04-19T01:08:44.443Z,62.13
2023-04-19T01:11:13.498Z,72.13
2023-04-19T01:13:42.598Z,65.47
2023-04-19T01:16:13.609Z,67.53
2023-04-19T01:18:42.816Z,67.75
2023-04-19T01:21:12.831Z,62.80
2023-04-19T01:23:43.340Z,67.47
2023-04-19T01:26:12.806Z,71.22
2023-04-19T01:28:42.117Z,75.82
2023-04-19T01:31:11.814Z,65.70
2023-04-19T01:33:40.936Z,60.45
2023-04-19T01:36:13.084Z,71.03
2023-04-19T01:38:47.755Z,65.13
2023-04-19T01:41:17.006Z,67.50
2023-04-19T01:43:46.174Z,74.75
2023-04-19T01:46:15.316Z,71.70
2023-04-19T01:48:44.464Z,66.75
2023-04-19T01:51:13.548Z,76.70
2023-04-19T01:53:42.454Z,67.85
2023-04-19T01:56:13.528Z,65.60
2023-04-19T01:58:42.407Z,65.17
2023-04-19T02:01:12.896Z,68.32
2023-04-19T02:03:42.315Z,59.38
2023-04-19T02:06:13.554Z,64.15
2023-04-19T02:08:43.942Z,67.45
2023-04-19T02:11:15.627Z,76.05
2023-04-19T02:13:44.949Z,66.95
2023-04-19T02:16:13.926Z,64.57
2023-04-19T02:18:42.842Z,68.68
2023-04-19T02:21:12.584Z,65.88
2023-04-19T02:23:41.984Z,71.22
2023-04-19T02:26:13.025Z,70.35
2023-04-19T02:28:46.604Z,70.95
2023-04-19T02:31:15.672Z,66.72
2023-04-19T02:33:46.763Z,80.25
2023-04-19T02:36:15.858Z,71.10
2023-04-19T02:38:45.148Z,75.30
2023-04-19T02:41:15.763Z,77.38
2023-04-19T02:43:45.036Z,61.40
2023-04-19T02:46:16.788Z,65.45
2023-04-19T02:48:46.432Z,68.75
2023-04-19T02:51:17.510Z,64.78
2023-04-19T02:53:47.297Z,62.00
2023-04-19T02:56:17.168Z,69.55
2023-04-19T02:58:46.584Z,63.60
2023-04-19T03:01:17.249Z,68.15
2023-04-19T03:03:46.893Z,57.97
2023-04-19T03:06:16.972Z,68.85
2023-04-19T03:08:46.121Z,65.50
2023-04-19T03:11:17.428Z,67.95
2023-04-19T03:13:46.660Z,71.63
2023-04-19T03:16:18.187Z,80.40
2023-04-19T03:18:49.317Z,78.30
2023-04-19T03:21:21.267Z,69.90
2023-04-19T03:23:54.969Z,76.88
2023-04-19T03:26:25.019Z,72.63
2023-04-19T03:28:56.108Z,77.50
2023-04-19T03:31:36.870Z,71.57
2023-04-19T03:34:06.426Z,80.13
2023-04-19T03:36:41.796Z,70.60
2023-04-19T03:39:10.795Z,73.88
2023-04-19T03:41:42.669Z,75.20
2023-04-19T03:44:37.559Z,75.78
2023-04-19T03:47:10.386Z,75.63
2023-04-19T03:49:45.053Z,75.25
2023-04-19T03:52:15.217Z,82.10
2023-04-19T03:54:44.479Z,72.13
2023-04-19T03:57:26.269Z,70.68
2023-04-19T03:59:56.736Z,80.32
2023-04-19T04:02:27.451Z,81.18
2023-04-19T04:04:56.946Z,78.50
2023-04-19T04:07:26.885Z,83.85
2023-04-19T04:09:56.512Z,87.75
2023-04-19T04:12:25.879Z,91.93
2023-04-19T04:14:56.678Z,82.47
2023-04-19T04:17:27.222Z,88.43
2023-04-19T04:19:56.190Z,96.03
2023-04-19T04:22:28.328Z,86.43
2023-04-19T04:24:58.181Z,94.00
2023-04-19T04:27:33.526Z,85.38
2023-04-19T04:30:03.951Z,90.50
2023-04-19T04:32:35.868Z,102.45
2023-04-19T04:35:05.870Z,89.97
2023-04-19T04:37:46.439Z,82.40
2023-04-19T04:40:16.709Z,84.80
2023-04-19T04:42:46.465Z,90.72
2023-04-19T04:45:18.277Z,99.72
2023-04-19T04:47:49.891Z,101.70
2023-04-19T04:50:19.381Z,93.22
2023-04-19T04:52:51.878Z,86.45
2023-04-19T04:55:27.019Z,93.30
2023-04-19T04:57:56.634Z,90.43
2023-04-19T05:00:34.417Z,86.88
2023-04-19T05:03:08.297Z,89.40
2023-04-19T05:05:44.352Z,97.38
2023-04-19T05:08:14.391Z,102.57
2023-04-19T05:10:43.996Z,94.78
2023-04-19T05:13:15.062Z,92.07
2023-04-19T05:15:44.366Z,84.90
2023-04-19T05:18:15.135Z,99.43
2023-04-19T05:20:46.771Z,79.50
2023-04-19T05:23:23.249Z,81.88
2023-04-19T05:25:53.948Z,70.55
2023-04-19T05:31:02.623Z,78.20
2023-04-19T05:33:38.125Z,80.88
2023-04-19T05:36:07.742Z,71.20
2023-04-19T05:38:36.769Z,55.83
2023-04-19T05:41:05.928Z,72.95
2023-04-19T05:43:34.808Z,64.68
2023-04-19T05:46:04.397Z,73.00
2023-04-19T05:48:33.611Z,83.63
2023-04-19T05:51:23.523Z,78.53
2023-04-19T05:53:59.288Z,68.63
2023-04-19T05:56:28.568Z,70.15
2023-04-19T05:58:58.383Z,65.40
2023-04-19T06:01:27.564Z,73.18
2023-04-19T06:03:57.543Z,76.53
2023-04-19T06:06:28.768Z,59.75
2023-04-19T06:08:57.872Z,59.00
2023-04-19T06:11:38.456Z,66.43
2023-04-19T06:14:12.433Z,59.42
2023-04-19T06:16:41.781Z,67.13
2023-04-19T06:19:10.763Z,69.75
2023-04-19T06:21:41.194Z,58.97
2023-04-19T06:24:10.265Z,63.10
2023-04-19T06:26:39.271Z,62.30
2023-04-19T06:29:08.230Z,61.15
2023-04-19T06:31:37.312Z,63.70
2023-04-19T06:34:06.261Z,60.00
2023-04-19T06:36:35.306Z,58.67
2023-04-19T06:39:05.702Z,56.20
2023-04-19T06:41:34.825Z,51.35
2023-04-19T06:44:03.887Z,51.00
2023-04-19T06:46:33.792Z,55.13
2023-04-19T06:49:02.960Z,65.68
2023-04-19T06:51:32.301Z,51.92
2023-04-19T06:54:01.390Z,51.45
2023-04-19T06:56:45.729Z,55.15
2023-04-19T06:59:15.026Z,53.58
2023-04-19T07:01:44.250Z,59.35
2023-04-19T07:04:13.583Z,59.35
2023-04-19T07:06:42.768Z,50.17
2023-04-19T07:09:11.710Z,42.80
2023-04-19T07:11:40.720Z,51.10
2023-04-19T07:14:11.679Z,46.13
2023-04-19T07:16:40.946Z,49.22
2023-04-19T07:19:09.954Z,49.42
2023-04-19T07:21:39.610Z,54.20
2023-04-19T07:24:08.972Z,52.90
2023-04-19T07:26:37.930Z,52.80
2023-04-19T07:29:06.974Z,55.30
2023-04-19T07:31:37.261Z,48.20
2023-04-19T07:34:06.554Z,47.92
2023-04-19T07:36:37.128Z,49.63
2023-04-19T07:39:06.466Z,45.78
2023-04-19T07:41:36.297Z,41.65
2023-04-19T07:44:06.885Z,49.85
2023-04-19T07:46:37.572Z,41.17
2023-04-19T07:49:06.884Z,50.60
2023-04-19T07:51:36.120Z,48.22
2023-04-19T07:54:05.363Z,40.83
2023-04-19T07:56:35.078Z,38.33
2023-04-19T07:59:09.023Z,30.58
2023-04-19T08:01:40.418Z,44.75
2023-04-19T08:04:10.304Z,37.15
2023-04-19T08:06:40.769Z,38.72
2023-04-19T08:09:09.758Z,39.05
2023-04-19T08:11:38.779Z,46.42
2023-04-19T08:14:15.130Z,46.97
2023-04-19T08:19:20.763Z,45.15
2023-04-19T08:21:49.640Z,41.70
2023-04-19T08:24:18.726Z,37.35
2023-04-19T08:26:53.953Z,35.42
2023-04-19T08:29:23.428Z,45.03
2023-04-19T08:31:54.377Z,41.13
2023-04-19T08:34:23.450Z,46.05
2023-04-19T08:37:03.294Z,41.33
2023-04-19T08:39:34.616Z,40.13
2023-04-19T08:42:15.533Z,37.67
2023-04-19T08:45:23.178Z,49.60
2023-04-19T08:48:00.928Z,37.33
2023-04-19T08:50:40.692Z,36.38
2023-04-19T08:53:25.547Z,40.05
2023-04-19T09:01:06.282Z,34.60
2023-04-19T09:03:51.187Z,29.35
2023-04-19T09:06:27.409Z,28.70
2023-04-19T09:11:47.992Z,22.50
2023-04-19T09:14:18.529Z,32.65
2023-04-19T09:16:47.932Z,32.03
2023-04-19T09:19:23.941Z,33.58
2023-04-19T09:21:54.994Z,44.40
2023-04-19T09:27:12.186Z,38.90
2023-04-19T09:29:41.398Z,37.03
2023-04-19T09:32:10.420Z,47.80
2023-04-19T09:34:52.904Z,33.60
2023-04-19T09:39:57.068Z,38.22
2023-04-19T09:42:47.421Z,42.08
2023-04-19T09:47:47.725Z,39.28
2023-04-19T09:50:23.905Z,45.45
2023-04-19T09:52:55.835Z,38.13
2023-04-19T09:55:28.150Z,44.72
2023-04-19T09:57:58.153Z,42.65
2023-04-19T10:00:29.812Z,40.22
2023-04-19T10:03:06.422Z,41.83
2023-04-19T10:05:38.629Z,36.97
2023-04-19T10:08:09.380Z,41.13
2023-04-19T10:10:41.873Z,47.63
2023-04-19T10:15:52.053Z,36.25
2023-04-19T10:18:23.031Z,38.08
2023-04-19T10:20:54.987Z,31.08
2023-04-19T10:23:24.287Z,35.17
2023-04-19T10:25:57.509Z,36.10
2023-04-19T10:28:26.910Z,43.95
2023-04-19T10:30:56.710Z,37.47
2023-04-19T10:33:29.580Z,38.20
2023-04-19T10:36:01.212Z,42.50
2023-04-19T10:38:48.955Z,39.58
2023-04-19T10:41:19.072Z,38.67
2023-04-19T10:43:49.198Z,41.45
2023-04-19T10:46:19.271Z,37.97
2023-04-19T10:48:55.613Z,40.60
2023-04-19T10:51:29.003Z,38.83
2023-04-19T10:53:59.064Z,37.63
2023-04-19T10:56:59.416Z,32.30
2023-04-19T10:59:28.655Z,37.50
2023-04-19T11:01:58.572Z,34.95
2023-04-19T11:04:47.741Z,25.05
2023-04-19T11:07:20.198Z,41.85
2023-04-19T11:09:51.068Z,32.50
2023-04-19T11:12:20.719Z,30.08
2023-04-19T11:14:50.364Z,37.42
2023-04-19T11:17:20.625Z,36.00
2023-04-19T11:19:55.116Z,36.90
2023-04-19T11:22:32.720Z,30.05
2023-04-19T11:25:11.926Z,29.25
2023-04-19T11:27:41.127Z,37.15
2023-04-19T11:30:11.682Z,33.40
2023-04-19T11:32:46.393Z,30.35
2023-04-19T11:35:15.422Z,35.20
2023-04-19T11:37:45.937Z,32.90
2023-04-19T11:40:17.269Z,32.20
2023-04-19T11:42:47.396Z,43.28
2023-04-19T11:45:30.162Z,38.78
2023-04-19T11:48:15.626Z,32.45
2023-04-19T11:50:45.563Z,34.50
2023-04-19T11:53:17.447Z,34.55
2023-04-19T11:58:25.256Z,38.30
2023-04-19T12:00:54.205Z,40.08
2023-04-19T12:03:26.133Z,39.38
2023-04-19T12:05:57.281Z,36.58
2023-04-19T12:08:34.105Z,33.42
2023-04-19T12:11:03.605Z,39.50
2023-04-19T12:13:32.910Z,43.38
2023-04-19T12:16:02.599Z,35.40
2023-04-19T12:18:44.646Z,37.10
2023-04-19T12:21:14.155Z,38.47
2023-04-19T12:23:44.836Z,35.95
2023-04-19T12:26:13.799Z,29.67
2023-04-19T12:28:42.738Z,36.58
2023-04-19T12:31:11.717Z,38.85
2023-04-19T12:33:41.227Z,37.20
2023-04-19T12:36:10.646Z,42.75
2023-04-19T12:38:40.021Z,32.30
2023-04-19T12:41:10.465Z,36.65
2023-04-19T12:43:39.412Z,35.05
2023-04-19T12:46:08.394Z,35.00
2023-04-19T12:48:37.295Z,32.33
2023-04-19T12:51:06.401Z,37.38
2023-04-19T12:53:35.331Z,36.15
2023-04-19T12:56:04.268Z,36.63
2023-04-19T12:58:34.920Z,38.95
2023-04-19T13:01:03.895Z,36.05
2023-04-19T13:03:36.450Z,40.92
2023-04-19T13:06:05.589Z,39.20
2023-04-19T13:08:44.773Z,31.10
2023-04-19T13:11:17.808Z,30.13
2023-04-19T13:13:48.193Z,38.22
2023-04-19T13:16:17.257Z,30.27
2023-04-19T13:18:46.635Z,35.50
2023-04-19T13:21:15.616Z,28.65
2023-04-19T13:23:45.362Z,34.22
2023-04-19T13:26:14.444Z,35.75
2023-04-19T13:28:43.842Z,36.00
2023-04-19T13:31:14.303Z,38.97
2023-04-19T13:33:43.339Z,38.08
2023-04-19T13:36:12.375Z,41.65
2023-04-19T13:38:41.494Z,44.17
2023-04-19T13:41:11.611Z,43.15
2023-04-19T13:43:40.759Z,34.40
2023-04-19T13:46:09.691Z,38.67
2023-04-19T13:48:40.014Z,40.10
2023-04-19T13:51:09.241Z,43.47
2023-04-19T13:53:38.180Z,40.00
2023-04-19T13:56:09.310Z,38.20
2023-04-19T13:58:38.269Z,40.23
2023-04-19T14:01:07.531Z,32.67
2023-04-19T14:03:36.774Z,34.70
2023-04-19T14:06:07.489Z,40.53
2023-04-19T14:08:36.442Z,41.78
2023-04-19T14:11:06.192Z,39.75
2023-04-19T14:13:35.216Z,35.13
2023-04-19T14:16:04.421Z,28.13
2023-04-19T14:18:33.359Z,31.10
2023-04-19T14:21:02.265Z,27.40
2023-04-19T14:23:32.513Z,33.20
2023-04-19T14:26:01.988Z,35.08
2023-04-19T14:28:31.174Z,32.30
2023-04-19T14:31:00.265Z,36.65
2023-04-19T14:33:29.521Z,36.97
2023-04-19T14:35:58.624Z,33.40
2023-04-19T14:38:27.561Z,31.42
2023-04-19T14:40:58.521Z,34.55
2023-04-19T14:43:27.617Z,34.67
2023-04-19T14:45:56.575Z,38.22
2023-04-19T14:48:26.380Z,35.40
2023-04-19T14:50:55.403Z,40.40
2023-04-19T14:53:24.517Z,34.22
2023-04-19T14:55:53.475Z,33.40
2023-04-19T14:58:23.787Z,35.42
2023-04-19T15:00:54.131Z,38.22
2023-04-19T15:03:23.333Z,40.25
2023-04-19T15:05:52.567Z,30.73
2023-04-19T15:08:30.223Z,29.63
2023-04-19T15:10:59.899Z,32.45
2023-04-19T15:13:30.739Z,34.53
2023-04-19T15:16:02.504Z,29.42
2023-04-19T15:18:32.287Z,32.03
2023-04-19T15:21:03.161Z,30.33
2023-04-19T15:23:32.392Z,28.58
2023-04-19T15:26:01.584Z,32.33
2023-04-19T15:28:36.193Z,35.17
2023-04-19T15:31:06.215Z,33.75
2023-04-19T15:33:38.283Z,36.50
2023-04-19T15:36:07.470Z,38.30
2023-04-19T15:38:36.630Z,34.30
2023-04-19T15:41:05.980Z,37.97
2023-04-19T15:43:36.496Z,35.28
2023-04-19T15:46:05.824Z,38.53
2023-04-19T15:48:35.063Z,31.88
2023-04-19T15:51:04.890Z,29.33
2023-04-19T15:53:34.015Z,38.45
2023-04-19T15:56:03.195Z,33.00
2023-04-19T15:58:32.419Z,32.38
2023-04-19T16:01:03.561Z,33.38
2023-04-19T16:03:32.805Z,35.53
2023-04-19T16:06:02.366Z,33.20
2023-04-19T16:08:31.586Z,36.85
2023-04-19T16:11:00.756Z,35.20
2023-04-19T16:13:31.446Z,29.58
2023-04-19T16:16:01.078Z,29.38
2023-04-19T16:18:31.847Z,32.67
2023-04-19T16:21:00.905Z,29.70
2023-04-19T16:23:32.022Z,36.50
2023-04-19T16:26:01.132Z,36.30
2023-04-19T16:28:30.411Z,27.08
2023-04-19T16:30:59.461Z,31.15
2023-04-19T16:33:28.750Z,23.70
2023-04-19T16:35:59.180Z,39.35
2023-04-19T16:38:28.236Z,33.78
2023-04-19T16:40:57.211Z,36.58
2023-04-19T16:43:26.383Z,37.05
2023-04-19T16:45:55.329Z,38.38
2023-04-19T16:48:24.496Z,33.08
2023-04-19T16:50:53.663Z,31.25
2023-04-19T16:53:24.034Z,36.92
2023-04-19T16:55:54.433Z,27.00
2023-04-19T16:58:24.655Z,32.65
2023-04-19T17:00:54.209Z,27.48
2023-04-19T17:03:24.592Z,31.08
2023-04-19T17:05:53.632Z,35.35
2023-04-19T17:08:24.329Z,29.05
2023-04-19T17:10:54.181Z,27.52
2023-04-19T17:13:23.272Z,29.23
2023-04-19T17:15:52.412Z,29.02
2023-04-19T17:18:22.179Z,32.85
2023-04-19T17:20:51.385Z,30.63
2023-04-19T17:23:21.361Z,35.08
2023-04-19T17:25:51.660Z,35.08
2023-04-19T17:28:20.705Z,34.30
2023-04-19T17:30:49.660Z,32.25
2023-04-19T17:33:18.589Z,32.08
2023-04-19T17:35:47.614Z,41.25
2023-04-19T17:38:16.693Z,32.60
2023-04-19T17:40:46.083Z,38.10
2023-04-19T17:43:16.688Z,28.75
2023-04-19T17:45:46.088Z,27.75
2023-04-19T17:48:15.276Z,27.95
2023-04-19T17:50:44.330Z,23.73
2023-04-19T17:53:13.585Z,24.17
2023-04-19T17:55:42.532Z,29.40
2023-04-19T17:58:11.536Z,34.95
2023-04-19T18:00:42.193Z,27.90
2023-04-19T18:03:11.575Z,33.50
2023-04-19T18:05:40.896Z,37.83
2023-04-19T18:08:10.002Z,29.80
2023-04-19T18:10:39.410Z,32.25
2023-04-19T18:13:08.319Z,41.78
2023-04-19T18:15:37.344Z,39.88
2023-04-19T18:18:07.922Z,45.22
2023-04-19T18:20:37.244Z,39.13
2023-04-19T18:23:06.365Z,37.05
2023-04-19T18:25:36.974Z,34.33
2023-04-19T18:28:06.504Z,39.63
2023-04-19T18:30:35.909Z,41.42
2023-04-19T18:33:05.078Z,40.47
2023-04-19T18:35:37.005Z,41.42
2023-04-19T18:38:06.182Z,34.38
2023-04-19T18:40:35.418Z,29.80
2023-04-19T18:43:04.465Z,46.55
2023-04-19T18:45:33.543Z,43.78
2023-04-19T18:48:03.560Z,37.15
2023-04-19T18:50:34.072Z,34.08
2023-04-19T18:53:05.234Z,33.75
2023-04-19T18:55:34.570Z,42.38
2023-04-19T18:58:03.476Z,38.78
2023-04-19T19:00:32.390Z,38.67
2023-04-19T19:03:03.409Z,35.33
2023-04-19T19:05:33.251Z,34.55
2023-04-19T19:08:02.590Z,42.63
2023-04-19T19:10:58.796Z,31.58
2023-04-19T19:13:21.871Z,34.22
2023-04-19T19:15:50.896Z,34.60
2023-04-19T19:18:20.317Z,37.58
2023-04-19T19:20:51.529Z,52.45
2023-04-19T19:23:32.202Z,49.35
2023-04-19T19:26:06.021Z,41.20
2023-04-19T19:28:34.927Z,41.33
2023-04-19T19:31:04.098Z,34.28
2023-04-19T19:33:33.432Z,42.65
2023-04-19T19:36:02.357Z,37.13
2023-04-19T19:38:31.409Z,44.17
2023-04-19T19:41:41.731Z,37.42
2023-04-19T19:43:50.872Z,35.45
2023-04-19T19:46:22.531Z,39.85
2023-04-19T19:48:53.725Z,39.88
2023-04-19T19:51:52.419Z,34.45
2023-04-19T19:54:12.277Z,38.20
2023-04-19T19:57:00.629Z,39.50
2023-04-19T19:59:34.958Z,40.17
2023-04-19T20:02:04.791Z,41.33
2023-04-19T20:04:35.005Z,37.83
2023-04-19T20:09:36.352Z,39.22
2023-04-19T20:12:05.576Z,35.38
2023-04-19T20:14:37.761Z,41.97
2023-04-19T20:17:07.537Z,40.30
2023-04-19T20:19:37.448Z,40.17
2023-04-19T20:22:06.452Z,43.83
2023-04-19T20:24:35.364Z,50.00
2023-04-19T20:27:04.379Z,38.45
2023-04-19T20:29:33.350Z,33.75
2023-04-19T20:32:03.739Z,37.13
2023-04-19T20:34:32.861Z,35.42
2023-04-19T20:37:04.005Z,36.63
2023-04-19T20:39:33.114Z,37.83
2023-04-19T20:42:02.102Z,37.22
2023-04-19T20:44:31.194Z,35.05
2023-04-19T20:47:00.124Z,38.20
2023-04-19T20:49:30.446Z,36.45
2023-04-19T20:51:59.365Z,36.38
2023-04-19T20:54:28.309Z,37.40
2023-04-19T20:57:04.491Z,40.88
2023-04-19T20:59:34.174Z,44.75
2023-04-19T21:02:03.346Z,39.40
2023-04-19T21:04:34.290Z,37.22
2023-04-19T21:07:03.568Z,44.45
2023-04-19T21:09:32.661Z,43.97
2023-04-19T21:12:02.179Z,37.67
2023-04-19T21:14:35.541Z,39.80
2023-04-19T21:17:04.900Z,36.83
2023-04-19T21:19:35.256Z,40.67
2023-04-19T21:22:04.430Z,35.60
2023-04-19T21:24:33.576Z,38.60
2023-04-19T21:27:02.579Z,34.00
2023-04-19T21:29:31.520Z,57.40
2023-04-19T21:32:00.641Z,42.22
2023-04-19T21:34:29.614Z,40.88
2023-04-19T21:37:00.054Z,38.03
2023-04-19T21:39:29.007Z,49.60
2023-04-19T21:41:58.296Z,47.10
2023-04-19T21:44:28.041Z,39.75
2023-04-19T21:46:57.059Z,45.47
2023-04-19T21:49:26.365Z,39.17
2023-04-19T21:51:56.868Z,37.65
2023-04-19T21:54:33.970Z,30.75
2023-04-19T21:57:04.172Z,39.33
2023-04-19T21:59:36.249Z,37.58
2023-04-19T22:02:06.403Z,42.05
2023-04-19T22:04:47.896Z,34.22
2023-04-19T22:07:18.320Z,39.45
2023-04-19T22:09:51.646Z,49.33
2023-04-19T22:12:20.821Z,41.42
2023-04-19T22:14:51.177Z,32.90
2023-04-19T22:17:20.966Z,41.42
2023-04-19T22:19:51.611Z,37.95
2023-04-19T22:22:20.648Z,35.67
2023-04-19T22:24:56.815Z,29.85
2023-04-19T22:27:27.687Z,25.60
2023-04-19T22:29:58.776Z,31.27
2023-04-19T22:32:27.807Z,31.23
2023-04-19T22:34:57.003Z,34.88
2023-04-19T22:37:26.060Z,27.13
2023-04-19T22:39:56.858Z,42.55
2023-04-19T22:42:26.085Z,44.50
2023-04-19T22:44:55.396Z,43.90
2023-04-19T22:47:24.397Z,42.42
2023-04-19T22:49:53.547Z,34.72
2023-04-19T22:52:22.953Z,36.10
2023-04-19T22:54:52.162Z,32.85
2023-04-19T22:57:22.685Z,35.75
2023-04-19T22:59:51.980Z,32.63
2023-04-19T23:02:21.826Z,34.28
2023-04-19T23:04:51.124Z,35.58
2023-04-19T23:07:22.172Z,35.63
2023-04-19T23:09:52.352Z,34.22
2023-04-19T23:12:22.928Z,41.15
2023-04-19T23:14:52.290Z,37.15
2023-04-19T23:17:21.301Z,29.38
2023-04-19T23:19:50.499Z,41.75
2023-04-19T23:22:19.422Z,34.17
2023-04-19T23:24:48.496Z,30.02
2023-04-19T23:27:17.444Z,43.58
2023-04-19T23:29:47.773Z,33.88
2023-04-19T23:32:18.131Z,35.83
2023-04-19T23:34:47.130Z,31.40
2023-04-19T23:37:16.145Z,35.80
2023-04-19T23:39:45.030Z,35.35
2023-04-19T23:42:13.900Z,46.42
2023-04-19T23:44:43.983Z,39.25
2023-04-19T23:47:14.427Z,26.08
2023-04-19T23:49:43.372Z,39.80
2023-04-19T23:52:12.548Z,35.03
2023-04-19T23:54:41.566Z,35.28
2023-04-19T23:57:10.758Z,35.53
2023-04-19T23:59:39.773Z,32.00
